Oregon Trader — 9HA3880 — position and weather

sailwx.info

Track history (hours):
 
Tides and Currents Weather Stations Pressure Air Temp Water Temp Dewpoint Dewpoint Depression Visibility Wind Speed Wind Dir Waves Ship Positions

Oregon Trader

Last reported at 2018-Jan-21 05:15 UTC. Time now 2018-Jan-21 08:30 UTC.
Position N 36°09' W 005°26'.

Length 212 m; draft 11.2 m.

Type: Ship (hazmat cat A). MMSI: 256304000.

Date/timePositionNaut miles runAvg speedWind from/ knotsBaromVisibWave heightAir tempDewpointWater temp
2018-Jan-21 05:15N 36°09' W 005°26'1 4.7
2018-Jan-21 04:59N 36°09' W 005°24'3 7.1
2018-Jan-21 04:30N 36°05' W 005°23'611.3
2018-Jan-21 04:00N 36°04' W 005°17'612.9
2018-Jan-21 03:30N 36°05' W 005°09'5913.3
2018-Jan-20 23:03N 36°13' W 003°56'212.0
2018-Jan-20 22:51N 36°13' W 003°53'412.5
2018-Jan-20 22:30N 36°12' W 003°48'3 0.3
2018-Jan-20 10:27N 36°15' W 003°51'4 9.7
2018-Jan-20 10:00N 36°15' W 003°45'5 9.5
2018-Jan-20 09:30N 36°16' W 003°40'510.0
2018-Jan-20 09:00N 36°17' W 003°33'510.9
2018-Jan-20 08:30N 36°17' W 003°27'510.9
2018-Jan-20 08:00N 36°18' W 003°20'611.2
2018-Jan-20 07:30N 36°19' W 003°13'816.0
2018-Jan-20 07:00N 36°20' W 003°04'1019.8
2018-Jan-20 06:30N 36°22' W 002°51'1319.3
2018-Jan-20 05:51N 36°24' W 002°36'618.4
2018-Jan-20 05:30N 36°24' W 002°28'917.9
2018-Jan-20 05:01N 36°25' W 002°17'  
2018-Jan-11 21:04N 36°26' E 026°51'115.0
2018-Jan-11 20:58N 36°27' E 026°49'815.0
2018-Jan-11 20:28N 36°33' E 026°43'714.5
2018-Jan-11 20:00N 36°37' E 026°37'814.2
2018-Jan-11 19:25N 36°43' E 026°29'714.4
2018-Jan-11 18:56N 36°48' E 026°23'814.5
2018-Jan-11 18:22N 36°54' E 026°16'713.8
2018-Jan-11 17:51N 36°59' E 026°10'514.1
2018-Jan-11 17:30N 37°04' E 026°08'714.8
2018-Jan-11 17:00N 37°10' E 026°04'815.0
2018-Jan-11 16:30N 37°17' E 025°60'815.1
2018-Jan-11 16:00N 37°24' E 025°56'715.0
2018-Jan-11 15:31N 37°31' E 025°52'  
Track history (hours):
 
Tides and Currents Weather Stations Pressure Air Temp Water Temp Dewpoint Dewpoint Depression Visibility Wind Speed Wind Dir Waves Ship Positions

Oregon Trader

Last reported at 2018-Jan-21 05:15 UTC. Time now 2018-Jan-21 08:30 UTC.
Position N 36°09' W 005°26'.

Length 212 m; draft 11.2 m.

Type: Ship (hazmat cat A). MMSI: 256304000.

Date/timePositionNaut miles runAvg speedWind from/ knotsBaromVisibWave heightAir tempDewpointWater temp
2018-Jan-21 05:15N 36°09' W 005°26'1 4.7
2018-Jan-21 04:59N 36°09' W 005°24'3 7.1
2018-Jan-21 04:30N 36°05' W 005°23'611.3
2018-Jan-21 04:00N 36°04' W 005°17'612.9
2018-Jan-21 03:30N 36°05' W 005°09'5913.3
2018-Jan-20 23:03N 36°13' W 003°56'212.0
2018-Jan-20 22:51N 36°13' W 003°53'412.5
2018-Jan-20 22:30N 36°12' W 003°48'3 0.3
2018-Jan-20 10:27N 36°15' W 003°51'4 9.7
2018-Jan-20 10:00N 36°15' W 003°45'5 9.5
2018-Jan-20 09:30N 36°16' W 003°40'510.0
2018-Jan-20 09:00N 36°17' W 003°33'510.9
2018-Jan-20 08:30N 36°17' W 003°27'510.9
2018-Jan-20 08:00N 36°18' W 003°20'611.2
2018-Jan-20 07:30N 36°19' W 003°13'816.0
2018-Jan-20 07:00N 36°20' W 003°04'1019.8
2018-Jan-20 06:30N 36°22' W 002°51'1319.3
2018-Jan-20 05:51N 36°24' W 002°36'618.4
2018-Jan-20 05:30N 36°24' W 002°28'917.9
2018-Jan-20 05:01N 36°25' W 002°17'  
2018-Jan-11 21:04N 36°26' E 026°51'115.0
2018-Jan-11 20:58N 36°27' E 026°49'815.0
2018-Jan-11 20:28N 36°33' E 026°43'714.5
2018-Jan-11 20:00N 36°37' E 026°37'814.2
2018-Jan-11 19:25N 36°43' E 026°29'714.4
2018-Jan-11 18:56N 36°48' E 026°23'814.5
2018-Jan-11 18:22N 36°54' E 026°16'713.8
2018-Jan-11 17:51N 36°59' E 026°10'514.1
2018-Jan-11 17:30N 37°04' E 026°08'714.8
2018-Jan-11 17:00N 37°10' E 026°04'815.0
2018-Jan-11 16:30N 37°17' E 025°60'815.1
2018-Jan-11 16:00N 37°24' E 025°56'715.0
2018-Jan-11 15:31N 37°31' E 025°52'  

Dump ship's entire track history